sensor_id;sensor_type;location;lat;lon;timestamp;temperature;humidity
29713;DHT22;16623;53.632;10.016;2022-12-04T00:02:00;0.30;99.90
29713;DHT22;16623;53.632;10.016;2022-12-04T00:04:25;0.30;99.90
29713;DHT22;16623;53.632;10.016;2022-12-04T00:06:53;0.30;99.90
29713;DHT22;16623;53.632;10.016;2022-12-04T00:09:20;0.30;99.90
29713;DHT22;16623;53.632;10.016;2022-12-04T00:11:45;0.30;99.90
29713;DHT22;16623;53.632;10.016;2022-12-04T00:14:11;0.40;99.90
29713;DHT22;16623;53.632;10.016;2022-12-04T00:16:36;0.40;99.90
29713;DHT22;16623;53.632;10.016;2022-12-04T00:19:03;0.30;99.90
29713;DHT22;16623;53.632;10.016;2022-12-04T00:21:29;0.30;99.90
29713;DHT22;16623;53.632;10.016;2022-12-04T00:23:55;0.30;99.90
29713;DHT22;16623;53.632;10.016;2022-12-04T00:26:23;0.30;99.90
29713;DHT22;16623;53.632;10.016;2022-12-04T00:28:49;0.30;99.90
29713;DHT22;16623;53.632;10.016;2022-12-04T00:31:18;0.20;99.90
29713;DHT22;16623;53.632;10.016;2022-12-04T00:33:45;0.30;99.90
29713;DHT22;16623;53.632;10.016;2022-12-04T00:36:13;0.20;99.90
29713;DHT22;16623;53.632;10.016;2022-12-04T00:38:39;0.30;99.90
29713;DHT22;16623;53.632;10.016;2022-12-04T00:41:08;0.30;99.90
29713;DHT22;16623;53.632;10.016;2022-12-04T00:43:34;0.40;99.90
29713;DHT22;16623;53.632;10.016;2022-12-04T00:46:00;0.40;99.90
29713;DHT22;16623;53.632;10.016;2022-12-04T00:48:25;0.30;99.90
29713;DHT22;16623;53.632;10.016;2022-12-04T00:50:51;0.30;99.90
29713;DHT22;16623;53.632;10.016;2022-12-04T00:53:18;0.40;99.90
29713;DHT22;16623;53.632;10.016;2022-12-04T00:55:44;0.40;99.90
29713;DHT22;16623;53.632;10.016;2022-12-04T00:58:09;0.40;99.90
29713;DHT22;16623;53.632;10.016;2022-12-04T01:00:37;0.30;99.90
29713;DHT22;16623;53.632;10.016;2022-12-04T01:03:04;0.30;99.90
29713;DHT22;16623;53.632;10.016;2022-12-04T01:05:30;0.40;99.90
29713;DHT22;16623;53.632;10.016;2022-12-04T01:07:56;0.40;99.90
29713;DHT22;16623;53.632;10.016;2022-12-04T01:10:22;0.30;99.90
29713;DHT22;16623;53.632;10.016;2022-12-04T01:12:50;0.40;99.90
29713;DHT22;16623;53.632;10.016;2022-12-04T01:15:16;0.30;99.90
29713;DHT22;16623;53.632;10.016;2022-12-04T01:17:41;0.40;99.90
29713;DHT22;16623;53.632;10.016;2022-12-04T01:20:07;0.30;99.90
29713;DHT22;16623;53.632;10.016;2022-12-04T01:22:33;0.40;99.90
29713;DHT22;16623;53.632;10.016;2022-12-04T01:24:58;0.40;99.90
29713;DHT22;16623;53.632;10.016;2022-12-04T01:27:24;0.50;99.90
29713;DHT22;16623;53.632;10.016;2022-12-04T01:29:51;0.50;99.90
29713;DHT22;16623;53.632;10.016;2022-12-04T01:32:16;0.50;99.90
29713;DHT22;16623;53.632;10.016;2022-12-04T01:34:42;0.40;99.90
29713;DHT22;16623;53.632;10.016;2022-12-04T01:37:07;0.40;99.90
29713;DHT22;16623;53.632;10.016;2022-12-04T01:39:35;0.30;99.90
29713;DHT22;16623;53.632;10.016;2022-12-04T01:42:01;0.40;99.90
29713;DHT22;16623;53.632;10.016;2022-12-04T01:44:29;0.40;99.90
29713;DHT22;16623;53.632;10.016;2022-12-04T01:46:57;0.30;99.90
29713;DHT22;16623;53.632;10.016;2022-12-04T01:49:44;0.40;99.90
29713;DHT22;16623;53.632;10.016;2022-12-04T01:52:19;0.40;99.90
29713;DHT22;16623;53.632;10.016;2022-12-04T01:54:48;0.30;99.90
29713;DHT22;16623;53.632;10.016;2022-12-04T01:57:20;0.40;99.90
29713;DHT22;16623;53.632;10.016;2022-12-04T01:59:54;0.30;99.90
29713;DHT22;16623;53.632;10.016;2022-12-04T02:02:31;0.40;99.90
29713;DHT22;16623;53.632;10.016;2022-12-04T02:04:59;0.40;99.90
29713;DHT22;16623;53.632;10.016;2022-12-04T02:07:25;0.40;99.90
29713;DHT22;16623;53.632;10.016;2022-12-04T02:09:51;0.40;99.90
29713;DHT22;16623;53.632;10.016;2022-12-04T02:12:55;0.50;99.90
29713;DHT22;16623;53.632;10.016;2022-12-04T02:15:40;0.50;99.90
29713;DHT22;16623;53.632;10.016;2022-12-04T02:20:56;0.40;99.90
29713;DHT22;16623;53.632;10.016;2022-12-04T02:23:49;0.40;99.90
29713;DHT22;16623;53.632;10.016;2022-12-04T02:26:29;0.40;99.90
29713;DHT22;16623;53.632;10.016;2022-12-04T02:29:11;0.40;99.90
29713;DHT22;16623;53.632;10.016;2022-12-04T02:31:47;0.50;99.90
29713;DHT22;16623;53.632;10.016;2022-12-04T02:34:25;0.40;99.90
29713;DHT22;16623;53.632;10.016;2022-12-04T02:37:08;1.50;99.90
29713;DHT22;16623;53.632;10.016;2022-12-04T02:39:39;0.40;99.90
29713;DHT22;16623;53.632;10.016;2022-12-04T02:42:29;0.40;99.90
29713;DHT22;16623;53.632;10.016;2022-12-04T02:45:02;0.40;99.90
29713;DHT22;16623;53.632;10.016;2022-12-04T02:47:31;0.40;99.90
29713;DHT22;16623;53.632;10.016;2022-12-04T02:49:59;0.50;99.90
29713;DHT22;16623;53.632;10.016;2022-12-04T02:52:32;0.40;99.90
29713;DHT22;16623;53.632;10.016;2022-12-04T02:55:03;0.40;99.90
29713;DHT22;16623;53.632;10.016;2022-12-04T02:57:34;0.40;99.90
29713;DHT22;16623;53.632;10.016;2022-12-04T03:00:02;0.30;99.90
29713;DHT22;16623;53.632;10.016;2022-12-04T03:02:51;0.40;99.90
29713;DHT22;16623;53.632;10.016;2022-12-04T03:05:21;0.50;99.90
29713;DHT22;16623;53.632;10.016;2022-12-04T03:07:53;0.60;99.90
29713;DHT22;16623;53.632;10.016;2022-12-04T03:10:31;0.40;99.90
29713;DHT22;16623;53.632;10.016;2022-12-04T03:13:11;0.50;99.90
29713;DHT22;16623;53.632;10.016;2022-12-04T03:18:21;0.50;99.90
29713;DHT22;16623;53.632;10.016;2022-12-04T03:20:49;0.50;99.90
29713;DHT22;16623;53.632;10.016;2022-12-04T03:23:36;0.50;99.90
29713;DHT22;16623;53.632;10.016;2022-12-04T03:26:17;0.40;99.90
29713;DHT22;16623;53.632;10.016;2022-12-04T03:29:18;0.50;99.90
29713;DHT22;16623;53.632;10.016;2022-12-04T03:34:47;0.40;99.90
29713;DHT22;16623;53.632;10.016;2022-12-04T03:37:25;0.40;99.90
29713;DHT22;16623;53.632;10.016;2022-12-04T03:40:22;0.40;99.90
29713;DHT22;16623;53.632;10.016;2022-12-04T03:43:05;0.40;99.90
29713;DHT22;16623;53.632;10.016;2022-12-04T03:51:38;0.50;99.90
29713;DHT22;16623;53.632;10.016;2022-12-04T03:54:29;0.50;99.90
29713;DHT22;16623;53.632;10.016;2022-12-04T03:56:59;0.50;99.90
29713;DHT22;16623;53.632;10.016;2022-12-04T03:59:29;0.50;99.90
29713;DHT22;16623;53.632;10.016;2022-12-04T04:01:59;0.50;99.90
29713;DHT22;16623;53.632;10.016;2022-12-04T04:04:30;0.50;99.90
29713;DHT22;16623;53.632;10.016;2022-12-04T04:07:08;0.50;99.90
29713;DHT22;16623;53.632;10.016;2022-12-04T04:09:39;0.40;99.90
29713;DHT22;16623;53.632;10.016;2022-12-04T04:12:15;0.50;99.90
29713;DHT22;16623;53.632;10.016;2022-12-04T04:14:48;0.50;99.90
29713;DHT22;16623;53.632;10.016;2022-12-04T04:17:37;0.40;99.90
29713;DHT22;16623;53.632;10.016;2022-12-04T04:20:33;1.40;99.90
29713;DHT22;16623;53.632;10.016;2022-12-04T04:23:19;0.40;99.90
29713;DHT22;16623;53.632;10.016;2022-12-04T04:26:04;0.40;99.90
29713;DHT22;16623;53.632;10.016;2022-12-04T04:31:35;0.40;99.90
29713;DHT22;16623;53.632;10.016;2022-12-04T04:34:27;0.50;99.90
29713;DHT22;16623;53.632;10.016;2022-12-04T04:39:55;0.40;99.90
29713;DHT22;16623;53.632;10.016;2022-12-04T04:42:27;0.40;99.90
29713;DHT22;16623;53.632;10.016;2022-12-04T04:45:13;0.40;99.90
29713;DHT22;16623;53.632;10.016;2022-12-04T04:47:50;0.50;99.90
29713;DHT22;16623;53.632;10.016;2022-12-04T04:50:19;0.40;99.90
29713;DHT22;16623;53.632;10.016;2022-12-04T04:52:55;0.50;99.90
29713;DHT22;16623;53.632;10.016;2022-12-04T04:55:23;0.50;99.90
29713;DHT22;16623;53.632;10.016;2022-12-04T04:57:49;0.40;99.90
29713;DHT22;16623;53.632;10.016;2022-12-04T05:00:20;0.40;99.90
29713;DHT22;16623;53.632;10.016;2022-12-04T05:02:46;0.40;99.90
29713;DHT22;16623;53.632;10.016;2022-12-04T05:05:16;0.40;99.90
29713;DHT22;16623;53.632;10.016;2022-12-04T05:07:42;0.50;99.90
29713;DHT22;16623;53.632;10.016;2022-12-04T05:10:08;0.40;99.90
29713;DHT22;16623;53.632;10.016;2022-12-04T05:12:34;0.40;99.90
29713;DHT22;16623;53.632;10.016;2022-12-04T05:15:00;0.40;99.90
29713;DHT22;16623;53.632;10.016;2022-12-04T05:17:25;0.50;99.90
29713;DHT22;16623;53.632;10.016;2022-12-04T05:19:51;0.50;99.90
29713;DHT22;16623;53.632;10.016;2022-12-04T05:22:26;0.50;99.90
29713;DHT22;16623;53.632;10.016;2022-12-04T05:24:52;0.50;99.90
29713;DHT22;16623;53.632;10.016;2022-12-04T05:27:18;0.50;99.90
29713;DHT22;16623;53.632;10.016;2022-12-04T05:29:44;1.50;99.90
29713;DHT22;16623;53.632;10.016;2022-12-04T05:32:09;0.50;99.90
29713;DHT22;16623;53.632;10.016;2022-12-04T05:34:36;0.50;99.90
29713;DHT22;16623;53.632;10.016;2022-12-04T05:37:02;0.50;99.90
29713;DHT22;16623;53.632;10.016;2022-12-04T05:39:27;1.20;99.90
29713;DHT22;16623;53.632;10.016;2022-12-04T05:41:53;0.50;99.90
29713;DHT22;16623;53.632;10.016;2022-12-04T05:44:18;0.50;99.90
29713;DHT22;16623;53.632;10.016;2022-12-04T05:46:44;0.50;99.90
29713;DHT22;16623;53.632;10.016;2022-12-04T05:49:09;0.50;99.90
29713;DHT22;16623;53.632;10.016;2022-12-04T05:51:35;0.50;99.90
29713;DHT22;16623;53.632;10.016;2022-12-04T05:54:00;0.50;99.90
29713;DHT22;16623;53.632;10.016;2022-12-04T05:56:26;0.50;99.90
29713;DHT22;16623;53.632;10.016;2022-12-04T05:58:51;0.50;99.90
29713;DHT22;16623;53.632;10.016;2022-12-04T06:01:19;0.50;99.90
29713;DHT22;16623;53.632;10.016;2022-12-04T06:03:45;0.50;99.90
29713;DHT22;16623;53.632;10.016;2022-12-04T06:06:20;0.50;99.90
29713;DHT22;16623;53.632;10.016;2022-12-04T06:08:47;0.50;99.90
29713;DHT22;16623;53.632;10.016;2022-12-04T06:11:14;0.90;99.90
29713;DHT22;16623;53.632;10.016;2022-12-04T06:13:41;0.50;99.90
29713;DHT22;16623;53.632;10.016;2022-12-04T06:16:12;0.50;99.90
29713;DHT22;16623;53.632;10.016;2022-12-04T06:18:38;0.50;99.90
29713;DHT22;16623;53.632;10.016;2022-12-04T06:21:04;0.50;99.90
29713;DHT22;16623;53.632;10.016;2022-12-04T06:23:29;0.50;99.90
29713;DHT22;16623;53.632;10.016;2022-12-04T06:25:55;0.50;99.90
29713;DHT22;16623;53.632;10.016;2022-12-04T06:28:23;0.50;99.90
29713;DHT22;16623;53.632;10.016;2022-12-04T06:30:48;0.50;99.90
29713;DHT22;16623;53.632;10.016;2022-12-04T06:33:14;0.50;99.90
29713;DHT22;16623;53.632;10.016;2022-12-04T06:35:39;0.60;99.90
29713;DHT22;16623;53.632;10.016;2022-12-04T06:38:05;0.60;99.90
29713;DHT22;16623;53.632;10.016;2022-12-04T06:40:32;0.60;99.90
29713;DHT22;16623;53.632;10.016;2022-12-04T06:42:57;0.70;99.90
29713;DHT22;16623;53.632;10.016;2022-12-04T06:45:23;0.60;99.90
29713;DHT22;16623;53.632;10.016;2022-12-04T06:47:49;0.60;99.90
29713;DHT22;16623;53.632;10.016;2022-12-04T06:50:14;0.60;99.90
29713;DHT22;16623;53.632;10.016;2022-12-04T06:52:40;0.60;99.90
29713;DHT22;16623;53.632;10.016;2022-12-04T06:55:05;0.60;99.90
29713;DHT22;16623;53.632;10.016;2022-12-04T06:57:32;0.70;99.90
29713;DHT22;16623;53.632;10.016;2022-12-04T06:59:57;0.70;99.90
29713;DHT22;16623;53.632;10.016;2022-12-04T07:02:23;0.60;99.90
29713;DHT22;16623;53.632;10.016;2022-12-04T07:04:52;0.70;99.90
29713;DHT22;16623;53.632;10.016;2022-12-04T07:07:19;0.70;99.90
29713;DHT22;16623;53.632;10.016;2022-12-04T07:09:44;0.80;99.90
29713;DHT22;16623;53.632;10.016;2022-12-04T07:12:11;0.70;99.90
29713;DHT22;16623;53.632;10.016;2022-12-04T07:14:37;0.80;99.90
29713;DHT22;16623;53.632;10.016;2022-12-04T07:17:02;0.70;99.90
29713;DHT22;16623;53.632;10.016;2022-12-04T07:19:28;0.70;99.90
29713;DHT22;16623;53.632;10.016;2022-12-04T07:21:53;0.70;99.90
29713;DHT22;16623;53.632;10.016;2022-12-04T07:24:19;0.80;99.90
29713;DHT22;16623;53.632;10.016;2022-12-04T07:26:45;0.80;99.90
29713;DHT22;16623;53.632;10.016;2022-12-04T07:29:11;0.80;99.90
29713;DHT22;16623;53.632;10.016;2022-12-04T07:31:37;0.80;99.90
29713;DHT22;16623;53.632;10.016;2022-12-04T07:34:02;0.90;99.90
29713;DHT22;16623;53.632;10.016;2022-12-04T07:36:28;0.80;99.90
29713;DHT22;16623;53.632;10.016;2022-12-04T07:38:54;0.80;99.90
29713;DHT22;16623;53.632;10.016;2022-12-04T07:41:20;0.80;99.90
29713;DHT22;16623;53.632;10.016;2022-12-04T07:43:46;0.90;99.90
29713;DHT22;16623;53.632;10.016;2022-12-04T07:46:17;0.80;99.90
29713;DHT22;16623;53.632;10.016;2022-12-04T07:48:43;0.90;99.90
29713;DHT22;16623;53.632;10.016;2022-12-04T07:51:18;0.90;99.90
29713;DHT22;16623;53.632;10.016;2022-12-04T07:53:44;0.80;99.90
29713;DHT22;16623;53.632;10.016;2022-12-04T07:56:11;0.80;99.90
29713;DHT22;16623;53.632;10.016;2022-12-04T07:58:37;0.80;99.90
29713;DHT22;16623;53.632;10.016;2022-12-04T08:01:14;0.90;99.90
29713;DHT22;16623;53.632;10.016;2022-12-04T08:03:41;1.00;99.90
29713;DHT22;16623;53.632;10.016;2022-12-04T08:06:07;1.00;99.90
29713;DHT22;16623;53.632;10.016;2022-12-04T08:08:34;1.00;99.90
29713;DHT22;16623;53.632;10.016;2022-12-04T08:11:00;1.00;99.90
29713;DHT22;16623;53.632;10.016;2022-12-04T08:13:29;1.00;99.90
29713;DHT22;16623;53.632;10.016;2022-12-04T08:15:54;1.00;99.90
29713;DHT22;16623;53.632;10.016;2022-12-04T08:18:20;1.10;99.90
29713;DHT22;16623;53.632;10.016;2022-12-04T08:20:45;1.10;99.90
29713;DHT22;16623;53.632;10.016;2022-12-04T08:23:11;1.10;99.90
29713;DHT22;16623;53.632;10.016;2022-12-04T08:25:40;1.10;99.90
29713;DHT22;16623;53.632;10.016;2022-12-04T08:28:06;1.20;99.90
29713;DHT22;16623;53.632;10.016;2022-12-04T08:30:33;1.20;99.90
29713;DHT22;16623;53.632;10.016;2022-12-04T08:32:59;1.10;99.90
29713;DHT22;16623;53.632;10.016;2022-12-04T08:35:24;1.20;99.90
29713;DHT22;16623;53.632;10.016;2022-12-04T08:37:50;1.20;99.90
29713;DHT22;16623;53.632;10.016;2022-12-04T08:40:15;1.30;99.90
29713;DHT22;16623;53.632;10.016;2022-12-04T08:42:41;1.30;99.90
29713;DHT22;16623;53.632;10.016;2022-12-04T08:45:07;1.30;99.90
29713;DHT22;16623;53.632;10.016;2022-12-04T08:47:33;1.40;99.90
29713;DHT22;16623;53.632;10.016;2022-12-04T08:49:59;1.40;99.90
29713;DHT22;16623;53.632;10.016;2022-12-04T08:52:27;1.30;99.90
29713;DHT22;16623;53.632;10.016;2022-12-04T08:54:53;1.40;99.90
29713;DHT22;16623;53.632;10.016;2022-12-04T08:57:18;1.40;99.90
29713;DHT22;16623;53.632;10.016;2022-12-04T08:59:44;1.50;99.90
29713;DHT22;16623;53.632;10.016;2022-12-04T09:02:10;1.50;99.90
29713;DHT22;16623;53.632;10.016;2022-12-04T09:04:37;1.50;99.90
29713;DHT22;16623;53.632;10.016;2022-12-04T09:07:02;1.60;99.90
29713;DHT22;16623;53.632;10.016;2022-12-04T09:09:28;1.60;99.90
29713;DHT22;16623;53.632;10.016;2022-12-04T09:11:54;1.50;99.90
29713;DHT22;16623;53.632;10.016;2022-12-04T09:14:19;1.50;99.90
29713;DHT22;16623;53.632;10.016;2022-12-04T09:16:50;1.60;99.90
29713;DHT22;16623;53.632;10.016;2022-12-04T09:19:16;1.70;99.90
29713;DHT22;16623;53.632;10.016;2022-12-04T09:21:41;1.60;99.90
29713;DHT22;16623;53.632;10.016;2022-12-04T09:24:08;1.70;99.90
29713;DHT22;16623;53.632;10.016;2022-12-04T09:26:34;1.70;99.90
29713;DHT22;16623;53.632;10.016;2022-12-04T09:29:01;1.70;99.90
29713;DHT22;16623;53.632;10.016;2022-12-04T09:31:28;1.80;99.90
29713;DHT22;16623;53.632;10.016;2022-12-04T09:33:54;1.80;99.90
29713;DHT22;16623;53.632;10.016;2022-12-04T09:36:20;1.80;99.90
29713;DHT22;16623;53.632;10.016;2022-12-04T09:38:48;1.80;99.90
29713;DHT22;16623;53.632;10.016;2022-12-04T09:46:33;1.90;99.90
29713;DHT22;16623;53.632;10.016;2022-12-04T09:49:04;2.00;99.90
29713;DHT22;16623;53.632;10.016;2022-12-04T09:51:34;2.00;99.90
29713;DHT22;16623;53.632;10.016;2022-12-04T09:54:07;2.10;99.90
29713;DHT22;16623;53.632;10.016;2022-12-04T09:56:38;2.00;99.90
29713;DHT22;16623;53.632;10.016;2022-12-04T09:59:13;2.00;99.90
29713;DHT22;16623;53.632;10.016;2022-12-04T10:02:02;2.10;99.90
29713;DHT22;16623;53.632;10.016;2022-12-04T10:04:31;2.10;99.90
29713;DHT22;16623;53.632;10.016;2022-12-04T10:07:00;2.20;99.90
29713;DHT22;16623;53.632;10.016;2022-12-04T10:12:31;2.20;99.90
29713;DHT22;16623;53.632;10.016;2022-12-04T10:15:18;2.20;99.90
29713;DHT22;16623;53.632;10.016;2022-12-04T10:21:12;2.20;99.90
29713;DHT22;16623;53.632;10.016;2022-12-04T10:26:45;2.40;99.90
29713;DHT22;16623;53.632;10.016;2022-12-04T10:31:43;2.40;99.90
29713;DHT22;16623;53.632;10.016;2022-12-04T10:34:26;2.40;99.90
29713;DHT22;16623;53.632;10.016;2022-12-04T10:36:57;2.50;99.90
29713;DHT22;16623;53.632;10.016;2022-12-04T10:39:34;2.50;99.90
29713;DHT22;16623;53.632;10.016;2022-12-04T10:42:16;2.50;99.90
29713;DHT22;16623;53.632;10.016;2022-12-04T10:44:45;2.40;99.90
29713;DHT22;16623;53.632;10.016;2022-12-04T10:47:12;2.50;99.90
29713;DHT22;16623;53.632;10.016;2022-12-04T10:49:38;2.50;99.90
29713;DHT22;16623;53.632;10.016;2022-12-04T10:52:05;2.40;99.90
29713;DHT22;16623;53.632;10.016;2022-12-04T10:54:48;2.40;99.90
29713;DHT22;16623;53.632;10.016;2022-12-04T10:57:16;2.40;99.90
29713;DHT22;16623;53.632;10.016;2022-12-04T10:59:50;2.40;99.90
29713;DHT22;16623;53.632;10.016;2022-12-04T11:02:22;2.50;99.90
29713;DHT22;16623;53.632;10.016;2022-12-04T11:04:58;2.50;99.90
29713;DHT22;16623;53.632;10.016;2022-12-04T11:07:30;2.40;99.90
29713;DHT22;16623;53.632;10.016;2022-12-04T11:12:32;2.50;99.90
29713;DHT22;16623;53.632;10.016;2022-12-04T11:17:32;2.60;99.90
29713;DHT22;16623;53.632;10.016;2022-12-04T11:20:12;2.70;99.90
29713;DHT22;16623;53.632;10.016;2022-12-04T11:22:56;2.70;99.90
29713;DHT22;16623;53.632;10.016;2022-12-04T11:25:26;2.70;99.90
29713;DHT22;16623;53.632;10.016;2022-12-04T11:27:59;2.70;99.90
29713;DHT22;16623;53.632;10.016;2022-12-04T11:30:30;2.70;99.90
29713;DHT22;16623;53.632;10.016;2022-12-04T11:32:57;2.60;99.90
29713;DHT22;16623;53.632;10.016;2022-12-04T11:35:25;2.70;99.90
29713;DHT22;16623;53.632;10.016;2022-12-04T11:37:55;2.70;99.90
29713;DHT22;16623;53.632;10.016;2022-12-04T11:40:22;2.80;99.90
29713;DHT22;16623;53.632;10.016;2022-12-04T11:43:04;2.80;99.90
29713;DHT22;16623;53.632;10.016;2022-12-04T11:45:31;2.80;99.90
29713;DHT22;16623;53.632;10.016;2022-12-04T11:47:58;2.90;99.90
29713;DHT22;16623;53.632;10.016;2022-12-04T11:50:32;2.90;99.90
29713;DHT22;16623;53.632;10.016;2022-12-04T11:53:22;2.80;99.90
29713;DHT22;16623;53.632;10.016;2022-12-04T11:56:07;2.90;99.90
29713;DHT22;16623;53.632;10.016;2022-12-04T12:04:07;3.00;99.90
29713;DHT22;16623;53.632;10.016;2022-12-04T12:10:05;2.90;99.90
29713;DHT22;16623;53.632;10.016;2022-12-04T12:19:13;3.10;99.90
29713;DHT22;16623;53.632;10.016;2022-12-04T12:24:29;3.10;99.90
29713;DHT22;16623;53.632;10.016;2022-12-04T12:30:09;3.10;99.90
29713;DHT22;16623;53.632;10.016;2022-12-04T12:35:37;3.20;99.90
29713;DHT22;16623;53.632;10.016;2022-12-04T12:38:15;3.20;99.90
29713;DHT22;16623;53.632;10.016;2022-12-04T12:40:46;3.20;99.90
29713;DHT22;16623;53.632;10.016;2022-12-04T12:43:27;3.20;99.90
29713;DHT22;16623;53.632;10.016;2022-12-04T12:57:26;3.30;99.90
29713;DHT22;16623;53.632;10.016;2022-12-04T12:59:55;3.30;99.90
29713;DHT22;16623;53.632;10.016;2022-12-04T13:02:30;3.30;99.90
29713;DHT22;16623;53.632;10.016;2022-12-04T13:05:04;3.40;99.90
29713;DHT22;16623;53.632;10.016;2022-12-04T13:07:50;3.30;99.90
29713;DHT22;16623;53.632;10.016;2022-12-04T13:10:25;3.40;99.90
29713;DHT22;16623;53.632;10.016;2022-12-04T13:12:58;3.40;99.90
29713;DHT22;16623;53.632;10.016;2022-12-04T13:15:32;3.40;99.90
29713;DHT22;16623;53.632;10.016;2022-12-04T13:17:59;3.50;99.90
29713;DHT22;16623;53.632;10.016;2022-12-04T13:20:28;3.50;99.90
29713;DHT22;16623;53.632;10.016;2022-12-04T13:23:00;3.40;99.90
29713;DHT22;16623;53.632;10.016;2022-12-04T13:42:25;3.60;99.90
29713;DHT22;16623;53.632;10.016;2022-12-04T13:44:56;3.60;99.90
29713;DHT22;16623;53.632;10.016;2022-12-04T13:47:28;3.60;99.90
29713;DHT22;16623;53.632;10.016;2022-12-04T13:52:52;3.70;99.90
29713;DHT22;16623;53.632;10.016;2022-12-04T13:58:02;3.80;99.90
29713;DHT22;16623;53.632;10.016;2022-12-04T14:00:40;3.80;99.90
29713;DHT22;16623;53.632;10.016;2022-12-04T14:03:46;3.80;99.90
29713;DHT22;16623;53.632;10.016;2022-12-04T14:06:31;3.80;99.90
29713;DHT22;16623;53.632;10.016;2022-12-04T14:09:01;3.80;99.90
29713;DHT22;16623;53.632;10.016;2022-12-04T14:11:31;3.80;99.90
29713;DHT22;16623;53.632;10.016;2022-12-04T14:14:05;3.90;99.90
29713;DHT22;16623;53.632;10.016;2022-12-04T14:16:41;3.90;99.90
29713;DHT22;16623;53.632;10.016;2022-12-04T14:19:07;3.90;99.90
29713;DHT22;16623;53.632;10.016;2022-12-04T14:21:46;3.90;99.90
29713;DHT22;16623;53.632;10.016;2022-12-04T14:24:34;3.90;99.90
29713;DHT22;16623;53.632;10.016;2022-12-04T14:29:51;3.90;99.90
29713;DHT22;16623;53.632;10.016;2022-12-04T14:32:22;3.90;99.90
29713;DHT22;16623;53.632;10.016;2022-12-04T14:34:48;3.90;99.90
29713;DHT22;16623;53.632;10.016;2022-12-04T14:37:23;4.00;99.90
29713;DHT22;16623;53.632;10.016;2022-12-04T14:39:50;3.90;99.90
29713;DHT22;16623;53.632;10.016;2022-12-04T14:42:26;3.90;99.90
29713;DHT22;16623;53.632;10.016;2022-12-04T14:44:57;4.00;99.90
29713;DHT22;16623;53.632;10.016;2022-12-04T14:47:30;4.00;99.90
29713;DHT22;16623;53.632;10.016;2022-12-04T14:52:43;4.00;99.90
29713;DHT22;16623;53.632;10.016;2022-12-04T14:55:36;4.00;99.90
29713;DHT22;16623;53.632;10.016;2022-12-04T14:58:16;4.00;99.90
29713;DHT22;16623;53.632;10.016;2022-12-04T15:01:00;4.00;99.90
29713;DHT22;16623;53.632;10.016;2022-12-04T15:03:30;4.00;99.90
29713;DHT22;16623;53.632;10.016;2022-12-04T15:06:04;4.00;99.90
29713;DHT22;16623;53.632;10.016;2022-12-04T15:08:30;4.00;99.90
29713;DHT22;16623;53.632;10.016;2022-12-04T15:10:55;4.00;99.90
29713;DHT22;16623;53.632;10.016;2022-12-04T15:13:40;4.10;99.90
29713;DHT22;16623;53.632;10.016;2022-12-04T15:16:16;4.10;99.90
29713;DHT22;16623;53.632;10.016;2022-12-04T15:18:55;4.00;99.90
29713;DHT22;16623;53.632;10.016;2022-12-04T15:21:27;4.10;99.90
29713;DHT22;16623;53.632;10.016;2022-12-04T15:23:54;4.00;99.90
29713;DHT22;16623;53.632;10.016;2022-12-04T15:26:21;4.10;99.90
29713;DHT22;16623;53.632;10.016;2022-12-04T15:28:57;4.10;99.90
29713;DHT22;16623;53.632;10.016;2022-12-04T15:31:28;4.10;99.90
29713;DHT22;16623;53.632;10.016;2022-12-04T15:33:59;4.10;99.90
29713;DHT22;16623;53.632;10.016;2022-12-04T15:39:19;4.10;99.90
29713;DHT22;16623;53.632;10.016;2022-12-04T15:41:45;4.10;99.90
29713;DHT22;16623;53.632;10.016;2022-12-04T15:44:28;4.10;99.90
29713;DHT22;16623;53.632;10.016;2022-12-04T15:46:54;4.10;99.90
29713;DHT22;16623;53.632;10.016;2022-12-04T15:49:31;4.10;99.90
29713;DHT22;16623;53.632;10.016;2022-12-04T15:52:15;4.10;99.90
29713;DHT22;16623;53.632;10.016;2022-12-04T15:54:43;4.10;99.90
29713;DHT22;16623;53.632;10.016;2022-12-04T15:57:32;4.10;99.90
29713;DHT22;16623;53.632;10.016;2022-12-04T15:59:58;4.20;99.90
29713;DHT22;16623;53.632;10.016;2022-12-04T16:02:30;4.20;99.90
29713;DHT22;16623;53.632;10.016;2022-12-04T16:04:57;4.20;99.90
29713;DHT22;16623;53.632;10.016;2022-12-04T16:07:28;4.20;99.90
29713;DHT22;16623;53.632;10.016;2022-12-04T16:10:00;4.20;99.90
29713;DHT22;16623;53.632;10.016;2022-12-04T16:12:28;4.20;99.90
29713;DHT22;16623;53.632;10.016;2022-12-04T16:14:55;4.20;99.90
29713;DHT22;16623;53.632;10.016;2022-12-04T16:17:29;4.20;99.90
29713;DHT22;16623;53.632;10.016;2022-12-04T16:19:56;4.30;99.90
29713;DHT22;16623;53.632;10.016;2022-12-04T16:22:22;4.30;99.90
29713;DHT22;16623;53.632;10.016;2022-12-04T16:24:49;4.20;99.90
29713;DHT22;16623;53.632;10.016;2022-12-04T16:27:18;4.30;99.90
29713;DHT22;16623;53.632;10.016;2022-12-04T16:29:50;4.30;99.90
29713;DHT22;16623;53.632;10.016;2022-12-04T16:32:18;4.30;99.90
29713;DHT22;16623;53.632;10.016;2022-12-04T16:34:45;4.30;99.90
29713;DHT22;16623;53.632;10.016;2022-12-04T16:37:16;4.30;99.90
29713;DHT22;16623;53.632;10.016;2022-12-04T16:39:42;4.30;99.90
29713;DHT22;16623;53.632;10.016;2022-12-04T16:42:26;4.30;99.90
29713;DHT22;16623;53.632;10.016;2022-12-04T16:44:52;4.30;99.90
29713;DHT22;16623;53.632;10.016;2022-12-04T16:47:18;4.40;99.90
29713;DHT22;16623;53.632;10.016;2022-12-04T16:49:46;4.40;99.90
29713;DHT22;16623;53.632;10.016;2022-12-04T16:52:12;4.40;99.90
29713;DHT22;16623;53.632;10.016;2022-12-04T16:54:38;4.40;99.90
29713;DHT22;16623;53.632;10.016;2022-12-04T16:57:05;4.40;99.90
29713;DHT22;16623;53.632;10.016;2022-12-04T16:59:30;4.40;99.90
29713;DHT22;16623;53.632;10.016;2022-12-04T17:01:56;4.40;99.90
29713;DHT22;16623;53.632;10.016;2022-12-04T17:04:22;4.50;99.90
29713;DHT22;16623;53.632;10.016;2022-12-04T17:06:47;4.40;99.90
29713;DHT22;16623;53.632;10.016;2022-12-04T17:09:13;4.50;99.90
29713;DHT22;16623;53.632;10.016;2022-12-04T17:11:39;4.50;99.90
29713;DHT22;16623;53.632;10.016;2022-12-04T17:14:05;4.40;99.90
29713;DHT22;16623;53.632;10.016;2022-12-04T17:16:37;4.40;99.90
29713;DHT22;16623;53.632;10.016;2022-12-04T17:19:05;4.40;99.90
29713;DHT22;16623;53.632;10.016;2022-12-04T17:21:30;4.50;99.90
29713;DHT22;16623;53.632;10.016;2022-12-04T17:23:56;4.50;99.90
29713;DHT22;16623;53.632;10.016;2022-12-04T17:26:21;4.50;99.90
29713;DHT22;16623;53.632;10.016;2022-12-04T17:28:51;4.50;99.90
29713;DHT22;16623;53.632;10.016;2022-12-04T17:31:19;4.50;99.90
29713;DHT22;16623;53.632;10.016;2022-12-04T17:33:45;4.50;99.90
29713;DHT22;16623;53.632;10.016;2022-12-04T17:36:13;4.50;99.90
29713;DHT22;16623;53.632;10.016;2022-12-04T17:38:39;4.30;99.90
29713;DHT22;16623;53.632;10.016;2022-12-04T17:41:07;4.50;99.90